createdAt,value
2019-05-06T00:02:25.801Z,96027.09
2019-05-06T00:04:56.660Z,96023.03
2019-05-06T00:07:29.480Z,96026.98
2019-05-06T00:09:59.994Z,96028.53
2019-05-06T00:12:33.498Z,96028.02
2019-05-06T00:15:04.387Z,96030.03
2019-05-06T00:17:35.517Z,96025.50
2019-05-06T00:20:10.276Z,96025.20
2019-05-06T00:22:44.595Z,96034.70
2019-05-06T00:25:19.294Z,96024.91
2019-05-06T00:28:07.170Z,96030.27
2019-05-06T00:30:38.253Z,96032.08
2019-05-06T00:33:09.832Z,96032.39
2019-05-06T00:35:41.627Z,96024.78
2019-05-06T00:38:13.894Z,96027.41
2019-05-06T00:40:46.256Z,96028.95
2019-05-06T00:43:16.739Z,96033.81
2019-05-06T00:45:47.207Z,96028.73
2019-05-06T00:48:17.918Z,96030.86
2019-05-06T00:50:53.571Z,96029.84
2019-05-06T00:53:25.902Z,96033.41
2019-05-06T00:55:56.407Z,96023.17
2019-05-06T00:58:27.098Z,96018.59
2019-05-06T01:00:57.461Z,96022.45
2019-05-06T01:03:47.060Z,96025.39
2019-05-06T01:06:17.598Z,96025.90
2019-05-06T01:08:48.076Z,96028.21
2019-05-06T01:11:18.554Z,96029.84
2019-05-06T01:14:07.152Z,96035.91
2019-05-06T01:16:38.056Z,96029.13
2019-05-06T01:19:08.505Z,96032.27
2019-05-06T01:21:39.019Z,96031.16
2019-05-06T01:24:09.454Z,96033.71
2019-05-06T01:26:39.935Z,96033.91
2019-05-06T01:29:14.391Z,96031.36
2019-05-06T01:31:46.072Z,96031.69
2019-05-06T01:34:16.672Z,96030.46
2019-05-06T01:36:56.084Z,96034.53
2019-05-06T01:39:44.276Z,96039.19
2019-05-06T01:42:24.633Z,96030.25
2019-05-06T01:44:55.566Z,96037.86
2019-05-06T01:47:26.030Z,96043.33
2019-05-06T01:49:58.654Z,96050.81
2019-05-06T01:52:29.259Z,96052.94
2019-05-06T01:54:59.969Z,96053.05
2019-05-06T01:57:30.477Z,96058.20
2019-05-06T02:00:01.417Z,96058.20
2019-05-06T02:02:37.475Z,96056.69
2019-05-06T02:05:09.167Z,96057.30
2019-05-06T02:07:39.569Z,96060.14
2019-05-06T02:10:10.044Z,96060.86
2019-05-06T02:12:40.487Z,96055.08
2019-05-06T02:15:10.951Z,96061.05
2019-05-06T02:17:55.122Z,96056.91
2019-05-06T02:20:25.834Z,96064.29
2019-05-06T02:23:08.567Z,96060.33
2019-05-06T02:25:45.743Z,96060.84
2019-05-06T02:28:18.271Z,96064.59
2019-05-06T02:31:08.092Z,96058.40
2019-05-06T02:34:06.453Z,96063.27
2019-05-06T02:36:58.614Z,96065.40
2019-05-06T02:39:29.121Z,96064.70
2019-05-06T02:41:59.668Z,96070.27
2019-05-06T02:44:44.116Z,96073.30
2019-05-06T02:47:34.201Z,96066.72
2019-05-06T02:50:05.953Z,96077.13
2019-05-06T02:52:36.758Z,96074.50
2019-05-06T02:55:07.764Z,96076.23
2019-05-06T02:57:39.309Z,96074.81
2019-05-06T03:00:13.971Z,96073.98
2019-05-06T03:02:47.951Z,96077.11
2019-05-06T03:05:19.302Z,96076.60
2019-05-06T03:07:49.869Z,96079.55
2019-05-06T03:10:24.343Z,96075.19
2019-05-06T03:12:54.142Z,96081.38
2019-05-06T03:15:24.744Z,96079.12
2019-05-06T03:17:55.607Z,96084.90
2019-05-06T03:20:54.827Z,96082.46
2019-05-06T03:23:27.431Z,96082.27
2019-05-06T03:25:59.279Z,96082.98
2019-05-06T03:28:33.453Z,96086.83
2019-05-06T03:31:06.859Z,96090.58
2019-05-06T03:33:59.769Z,96091.70
2019-05-06T03:36:25.003Z,96091.09
2019-05-06T03:38:47.703Z,96091.59
2019-05-06T03:41:18.172Z,96096.27
2019-05-06T03:43:48.749Z,96099.48
2019-05-06T03:46:42.989Z,96094.62
2019-05-06T03:49:15.455Z,96100.88
2019-05-06T03:51:46.229Z,96104.63
2019-05-06T03:54:16.734Z,96109.81
2019-05-06T03:56:47.333Z,96104.13
2019-05-06T03:59:18.465Z,96108.97
2019-05-06T04:01:53.318Z,96106.03
2019-05-06T04:04:24.192Z,96106.94
2019-05-06T04:06:55.221Z,96108.06
2019-05-06T04:09:25.676Z,96110.06
2019-05-06T04:12:03.652Z,96104.88
2019-05-06T04:14:34.650Z,96112.19
2019-05-06T04:17:16.507Z,96108.91
2019-05-06T04:19:53.404Z,96107.36
2019-05-06T04:22:55.049Z,96106.74
2019-05-06T04:25:43.642Z,96106.61
2019-05-06T04:28:19.928Z,96110.77
2019-05-06T04:30:50.764Z,96114.82
2019-05-06T04:33:23.688Z,96116.31
2019-05-06T04:35:54.256Z,96115.90
2019-05-06T04:38:38.588Z,96118.50
2019-05-06T04:41:14.718Z,96115.75
2019-05-06T04:43:45.229Z,96122.31
2019-05-06T04:46:16.878Z,96120.37
2019-05-06T04:48:48.086Z,96127.89
2019-05-06T04:51:18.889Z,96130.19
2019-05-06T04:53:55.453Z,96129.27
2019-05-06T04:56:29.455Z,96129.02
2019-05-06T04:59:06.289Z,96127.44
2019-05-06T05:01:35.860Z,96124.53
2019-05-06T05:04:22.980Z,96128.17
2019-05-06T05:06:39.826Z,96125.69
2019-05-06T05:09:17.326Z,96135.93
2019-05-06T05:11:53.411Z,96128.76
2019-05-06T05:14:32.782Z,96130.84
2019-05-06T05:17:09.209Z,96130.63
2019-05-06T05:19:42.867Z,96129.63
2019-05-06T05:22:13.841Z,96131.06
2019-05-06T05:24:44.248Z,96129.55
2019-05-06T05:27:14.742Z,96133.75
2019-05-06T05:29:46.183Z,96128.27
2019-05-06T05:32:16.843Z,96135.92
2019-05-06T05:34:48.615Z,96131.73
2019-05-06T05:37:22.783Z,96137.64
2019-05-06T05:39:53.896Z,96139.09
2019-05-06T05:42:49.635Z,96139.99
2019-05-06T05:45:22.174Z,96140.42
2019-05-06T05:47:54.931Z,96142.72
2019-05-06T05:50:32.490Z,96136.44
2019-05-06T05:53:04.640Z,96135.17
2019-05-06T05:55:35.222Z,96140.16
2019-05-06T05:58:16.335Z,96147.47
2019-05-06T06:00:48.636Z,96141.66
2019-05-06T06:03:22.062Z,96141.48
2019-05-06T06:05:56.646Z,96149.36
2019-05-06T06:08:27.447Z,96150.88
2019-05-06T06:11:08.089Z,96149.67
2019-05-06T06:13:39.112Z,96149.38
2019-05-06T06:16:38.666Z,96154.19
2019-05-06T06:19:26.737Z,96162.28
2019-05-06T06:22:03.721Z,96151.64
2019-05-06T06:24:35.943Z,96154.84
2019-05-06T06:27:07.097Z,96153.73
2019-05-06T06:29:39.196Z,96149.00
2019-05-06T06:32:14.573Z,96148.91
2019-05-06T06:35:14.724Z,96147.88
2019-05-06T06:38:23.868Z,96150.37
2019-05-06T06:40:57.266Z,96151.37
2019-05-06T06:43:27.807Z,96161.82
2019-05-06T06:45:58.283Z,96154.80
2019-05-06T06:48:28.695Z,96151.85
2019-05-06T06:50:59.372Z,96146.34
2019-05-06T06:53:29.881Z,96148.25
2019-05-06T06:56:29.652Z,96157.63
2019-05-06T06:59:22.720Z,96152.18
2019-05-06T07:02:12.677Z,96157.11
2019-05-06T07:04:49.056Z,96161.99
2019-05-06T07:07:22.709Z,96159.69
2019-05-06T07:09:55.622Z,96159.02
2019-05-06T07:12:32.889Z,96155.34
2019-05-06T07:15:03.850Z,96151.10
2019-05-06T07:17:37.580Z,96151.02
2019-05-06T07:20:13.096Z,96147.84
2019-05-06T07:22:43.849Z,96152.75
2019-05-06T07:25:15.129Z,96155.26
2019-05-06T07:27:45.864Z,96149.98
2019-05-06T07:30:18.271Z,96154.86
2019-05-06T07:32:48.899Z,96156.12
2019-05-06T07:35:19.821Z,96155.95
2019-05-06T07:37:53.002Z,96144.05
2019-05-06T07:40:26.964Z,96148.89
2019-05-06T07:42:59.068Z,96145.20
2019-05-06T07:45:43.284Z,96144.73
2019-05-06T07:48:16.995Z,96144.66
2019-05-06T07:50:49.334Z,96145.97
2019-05-06T07:53:19.822Z,96154.47
2019-05-06T07:55:52.494Z,96153.06
2019-05-06T07:58:32.237Z,96157.91
2019-05-06T08:01:06.398Z,96158.91
2019-05-06T08:03:42.613Z,96159.94
2019-05-06T08:06:13.209Z,96162.75
2019-05-06T08:08:43.931Z,96169.16
2019-05-06T08:11:22.277Z,96162.27
2019-05-06T08:13:53.075Z,96156.02
2019-05-06T08:16:24.454Z,96153.76
2019-05-06T08:18:55.095Z,96149.27
2019-05-06T08:21:27.167Z,96146.42
2019-05-06T08:24:03.076Z,96140.62
2019-05-06T08:26:33.552Z,96139.30
2019-05-06T08:29:03.986Z,96146.42
2019-05-06T08:31:34.439Z,96141.19
2019-05-06T08:34:04.926Z,96147.64
2019-05-06T08:36:58.407Z,96147.89
2019-05-06T08:39:32.657Z,96146.41
2019-05-06T08:42:03.494Z,96145.91
2019-05-06T08:44:49.743Z,96151.38
2019-05-06T08:47:22.224Z,96151.70
2019-05-06T08:50:27.317Z,96147.94
2019-05-06T08:53:18.939Z,96144.70
2019-05-06T08:55:53.136Z,96139.17
2019-05-06T08:58:47.538Z,96133.42
2019-05-06T09:01:43.771Z,96140.38
2019-05-06T09:04:16.298Z,96134.83
2019-05-06T09:06:48.868Z,96127.56
2019-05-06T09:09:27.005Z,96132.66
2019-05-06T09:11:57.451Z,96131.56
2019-05-06T09:14:28.388Z,96129.84
2019-05-06T09:17:03.102Z,96135.23
2019-05-06T09:19:34.049Z,96132.27
2019-05-06T09:22:04.986Z,96131.36
2019-05-06T09:24:42.647Z,96134.30
2019-05-06T09:27:22.583Z,96140.70
2019-05-06T09:29:59.423Z,96145.53
2019-05-06T09:32:36.220Z,96145.98
2019-05-06T09:35:07.505Z,96151.05
2019-05-06T09:37:43.066Z,96148.97
2019-05-06T09:40:13.614Z,96147.59
2019-05-06T09:42:44.090Z,96146.52
2019-05-06T09:45:14.924Z,96149.14
2019-05-06T09:48:04.126Z,96147.11
2019-05-06T09:50:49.028Z,96139.64
2019-05-06T09:56:39.269Z,96135.37
2019-05-06T09:59:09.892Z,96140.53
2019-05-06T10:01:43.707Z,96130.78
2019-05-06T10:04:17.082Z,96127.25
2019-05-06T10:06:57.097Z,96128.16
2019-05-06T10:09:26.947Z,96125.64
2019-05-06T10:11:57.782Z,96132.64
2019-05-06T10:14:28.258Z,96139.01
2019-05-06T10:17:04.425Z,96137.13
2019-05-06T10:19:33.734Z,96144.06
2019-05-06T10:22:04.284Z,96146.67
2019-05-06T10:24:34.903Z,96145.20
2019-05-06T10:27:05.593Z,96146.48
2019-05-06T10:29:49.432Z,96145.91
2019-05-06T10:32:42.662Z,96140.72
2019-05-06T10:35:14.309Z,96145.83
2019-05-06T10:38:12.764Z,96152.51
2019-05-06T10:41:00.912Z,96142.86
2019-05-06T10:43:52.416Z,96136.97
2019-05-06T10:46:25.126Z,96129.05
2019-05-06T10:48:55.762Z,96123.67
2019-05-06T10:51:32.487Z,96117.73
2019-05-06T10:54:03.339Z,96112.63
2019-05-06T10:56:57.561Z,96113.41
2019-05-06T10:59:29.661Z,96111.55
2019-05-06T11:02:06.558Z,96113.69
2019-05-06T11:04:38.300Z,96112.91
2019-05-06T11:07:28.206Z,96118.80
2019-05-06T11:09:49.628Z,96121.36
2019-05-06T11:12:24.370Z,96120.82
2019-05-06T11:14:57.736Z,96119.34
2019-05-06T11:17:28.777Z,96117.68
2019-05-06T11:20:19.324Z,96125.03
2019-05-06T11:22:52.684Z,96118.80
2019-05-06T11:25:26.354Z,96110.00
2019-05-06T11:28:02.957Z,96102.44
2019-05-06T11:30:56.800Z,96103.81
2019-05-06T11:33:57.144Z,96095.73
2019-05-06T11:36:37.986Z,96102.94
2019-05-06T11:39:09.688Z,96105.38
2019-05-06T11:41:49.427Z,96095.77
2019-05-06T11:44:12.929Z,96109.93
2019-05-06T11:46:43.595Z,96111.50
2019-05-06T11:49:23.555Z,96106.91
2019-05-06T11:51:56.346Z,96111.22
2019-05-06T11:54:27.048Z,96105.41
2019-05-06T11:57:13.054Z,96102.73
2019-05-06T11:59:45.080Z,96097.63
2019-05-06T12:02:18.931Z,96106.46
2019-05-06T12:04:52.581Z,96104.34
2019-05-06T12:07:25.693Z,96101.33
2019-05-06T12:09:56.171Z,96107.49
2019-05-06T12:12:26.607Z,96102.88
2019-05-06T12:15:03.606Z,96106.34
2019-05-06T12:17:36.142Z,96098.38
2019-05-06T12:20:06.904Z,96097.31
2019-05-06T12:22:37.303Z,96091.70
2019-05-06T12:25:14.388Z,96086.31
2019-05-06T12:27:52.707Z,96089.56
2019-05-06T12:30:24.764Z,96096.50
2019-05-06T12:33:14.133Z,96104.13
2019-05-06T12:35:48.125Z,96104.09
2019-05-06T12:38:32.986Z,96114.36
2019-05-06T12:41:03.739Z,96114.77
2019-05-06T12:43:43.197Z,96120.06
2019-05-06T12:46:27.603Z,96121.53
2019-05-06T12:49:03.137Z,96117.77
2019-05-06T12:51:37.972Z,96115.52
2019-05-06T12:54:09.901Z,96127.10
2019-05-06T12:56:42.072Z,96117.50
2019-05-06T12:59:13.078Z,96120.09
2019-05-06T13:01:45.423Z,96120.86
2019-05-06T13:04:15.760Z,96118.58
2019-05-06T13:07:07.136Z,96119.89
2019-05-06T13:09:42.501Z,96119.97
2019-05-06T13:12:14.643Z,96123.49
2019-05-06T13:14:47.892Z,96119.62
2019-05-06T13:17:25.132Z,96120.47
2019-05-06T13:19:57.271Z,96118.23
2019-05-06T13:22:55.590Z,96117.27
2019-05-06T13:25:32.852Z,96114.00
2019-05-06T13:28:07.064Z,96116.11
2019-05-06T13:30:43.184Z,96111.31
2019-05-06T13:33:34.160Z,96096.39
2019-05-06T13:36:13.214Z,96090.28
2019-05-06T13:38:43.278Z,96093.01
2019-05-06T13:41:15.977Z,96099.65
2019-05-06T13:43:54.042Z,96098.94
2019-05-06T13:46:36.744Z,96112.62
2019-05-06T13:49:30.643Z,96107.46
2019-05-06T13:52:04.631Z,96106.86
2019-05-06T13:54:39.461Z,96108.52
2019-05-06T13:57:12.488Z,96114.42
2019-05-06T13:59:44.108Z,96113.67
2019-05-06T14:02:43.663Z,96107.79
2019-05-06T14:05:14.231Z,96118.88
2019-05-06T14:07:45.449Z,96110.52
2019-05-06T14:10:22.637Z,96100.95
2019-05-06T14:12:56.335Z,96101.01
2019-05-06T14:15:27.099Z,96099.51
2019-05-06T14:18:02.536Z,96089.99
2019-05-06T14:20:33.703Z,96095.44
2019-05-06T14:23:05.388Z,96087.42
2019-05-06T14:25:53.888Z,96087.70
2019-05-06T14:28:32.857Z,96086.84
2019-05-06T14:31:10.546Z,96088.36
2019-05-06T14:33:42.812Z,96099.30
2019-05-06T14:36:18.465Z,96094.16
2019-05-06T14:38:56.801Z,96094.17
2019-05-06T14:41:32.567Z,96091.45
2019-05-06T14:44:05.236Z,96093.11
2019-05-06T14:47:08.652Z,96096.83
2019-05-06T14:49:43.245Z,96099.69
2019-05-06T14:52:23.095Z,96099.17
2019-05-06T14:55:17.471Z,96099.13
2019-05-06T14:57:50.873Z,96103.91
2019-05-06T15:00:31.981Z,96101.44
2019-05-06T15:03:02.922Z,96102.78
2019-05-06T15:05:36.546Z,96101.64
2019-05-06T15:08:09.895Z,96103.42
2019-05-06T15:10:40.329Z,96106.65
2019-05-06T15:13:12.731Z,96105.90
2019-05-06T15:15:48.886Z,96103.00
2019-05-06T15:18:19.440Z,96109.34
2019-05-06T15:20:50.154Z,96111.16
2019-05-06T15:23:22.405Z,96112.34
2019-05-06T15:25:56.418Z,96116.53
2019-05-06T15:28:26.833Z,96118.33
2019-05-06T15:31:05.348Z,96123.17
2019-05-06T15:33:41.699Z,96121.87
2019-05-06T15:36:22.211Z,96114.39
2019-05-06T15:38:52.780Z,96123.52
2019-05-06T15:41:43.160Z,96115.47
2019-05-06T15:44:19.321Z,96112.77
2019-05-06T15:46:56.918Z,96120.05
2019-05-06T15:49:28.135Z,96129.07
2019-05-06T15:51:59.099Z,96126.85
2019-05-06T15:54:34.874Z,96124.63
2019-05-06T15:57:11.438Z,96125.12
2019-05-06T15:59:44.543Z,96134.09
2019-05-06T16:02:14.455Z,96123.91
2019-05-06T16:04:48.579Z,96129.20
2019-05-06T16:07:25.265Z,96122.50
2019-05-06T16:09:57.306Z,96125.41
2019-05-06T16:12:29.211Z,96128.87
2019-05-06T16:15:03.163Z,96122.97
2019-05-06T16:17:34.214Z,96124.59
2019-05-06T16:20:12.821Z,96116.15
2019-05-06T16:22:45.905Z,96121.36
2019-05-06T16:25:16.713Z,96121.41
2019-05-06T16:27:55.731Z,96121.80
2019-05-06T16:30:26.217Z,96120.72
2019-05-06T16:32:56.885Z,96118.81
2019-05-06T16:35:32.677Z,96123.27
2019-05-06T16:38:03.238Z,96121.23
2019-05-06T16:40:37.643Z,96116.83
2019-05-06T16:43:09.481Z,96127.87
2019-05-06T16:45:39.982Z,96119.90
2019-05-06T16:48:12.857Z,96128.63
2019-05-06T16:50:46.298Z,96130.05
2019-05-06T16:53:19.834Z,96128.59
2019-05-06T16:56:13.587Z,96123.18
2019-05-06T16:58:48.091Z,96123.46
2019-05-06T17:01:22.098Z,96130.89
2019-05-06T17:04:08.269Z,96129.56
2019-05-06T17:06:51.916Z,96128.63
2019-05-06T17:09:29.768Z,96134.56
2019-05-06T17:12:04.831Z,96127.02
2019-05-06T17:14:35.656Z,96129.44
2019-05-06T17:17:07.657Z,96128.63
2019-05-06T17:19:42.221Z,96132.16
2019-05-06T17:22:13.815Z,96129.69
2019-05-06T17:24:48.658Z,96134.34
2019-05-06T17:27:23.542Z,96130.21
2019-05-06T17:30:22.607Z,96136.48
2019-05-06T17:33:03.815Z,96128.43
2019-05-06T17:35:37.025Z,96138.47
2019-05-06T17:38:12.930Z,96135.80
2019-05-06T17:40:43.381Z,96132.33
2019-05-06T17:43:15.439Z,96135.64
2019-05-06T17:46:01.767Z,96133.68
2019-05-06T17:48:49.372Z,96140.28
2019-05-06T17:51:42.590Z,96137.84
2019-05-06T17:54:38.285Z,96139.81
2019-05-06T17:57:15.614Z,96140.52
2019-05-06T17:59:59.101Z,96137.03
2019-05-06T18:02:29.800Z,96143.06
2019-05-06T18:05:05.270Z,96140.80
2019-05-06T18:07:37.195Z,96142.52
2019-05-06T18:10:09.282Z,96139.97
2019-05-06T18:12:42.422Z,96139.28
2019-05-06T18:15:15.896Z,96141.86
2019-05-06T18:17:47.322Z,96143.06
2019-05-06T18:20:22.392Z,96145.00
2019-05-06T18:22:57.646Z,96143.70
2019-05-06T18:25:29.088Z,96152.58
2019-05-06T18:27:59.865Z,96149.13
2019-05-06T18:30:42.940Z,96157.93
2019-05-06T18:33:15.056Z,96154.53
2019-05-06T18:35:47.038Z,96160.95
2019-05-06T18:38:27.096Z,96157.85
2019-05-06T18:41:15.435Z,96161.90
2019-05-06T18:43:43.886Z,96162.73
2019-05-06T18:46:26.104Z,96169.66
2019-05-06T18:48:59.660Z,96163.88
2019-05-06T18:51:38.103Z,96169.75
2019-05-06T18:54:12.905Z,96173.48
2019-05-06T18:56:52.201Z,96177.21
2019-05-06T18:59:26.103Z,96176.14
2019-05-06T19:02:01.941Z,96180.38
2019-05-06T19:04:43.275Z,96182.91
2019-05-06T19:07:17.245Z,96186.74
2019-05-06T19:10:10.384Z,96190.16
2019-05-06T19:12:46.154Z,96193.98
2019-05-06T19:15:16.566Z,96198.14
2019-05-06T19:17:52.489Z,96194.09
2019-05-06T19:20:24.533Z,96207.71
2019-05-06T19:22:58.704Z,96209.94
2019-05-06T19:25:29.198Z,96211.19
2019-05-06T19:28:03.098Z,96215.77
2019-05-06T19:30:35.171Z,96217.17
2019-05-06T19:33:08.784Z,96221.66
2019-05-06T19:35:42.717Z,96227.09
2019-05-06T19:38:24.316Z,96219.82
2019-05-06T19:40:52.156Z,96222.30
2019-05-06T19:43:22.242Z,96220.90
2019-05-06T19:45:53.235Z,96219.14
2019-05-06T19:48:27.076Z,96218.84
2019-05-06T19:51:00.105Z,96219.66
2019-05-06T19:53:32.343Z,96219.06
2019-05-06T19:56:08.993Z,96215.90
2019-05-06T19:58:40.328Z,96212.44
2019-05-06T20:01:22.871Z,96224.52
2019-05-06T20:03:53.880Z,96216.88
2019-05-06T20:06:57.177Z,96218.91
2019-05-06T20:10:13.210Z,96220.52
2019-05-06T20:12:59.474Z,96223.19
2019-05-06T20:15:42.948Z,96219.50
2019-05-06T20:18:21.651Z,96219.87
2019-05-06T20:20:47.361Z,96224.27
2019-05-06T20:23:32.806Z,96217.13
2019-05-06T20:26:04.665Z,96216.83
2019-05-06T20:28:37.997Z,96215.66
2019-05-06T20:31:09.646Z,96216.98
2019-05-06T20:33:53.650Z,96214.55
2019-05-06T20:36:33.276Z,96212.42
2019-05-06T20:39:05.629Z,96212.84
2019-05-06T20:41:42.682Z,96211.73
2019-05-06T20:44:13.473Z,96214.38
2019-05-06T20:46:52.712Z,96211.94
2019-05-06T20:49:28.304Z,96207.67
2019-05-06T20:51:58.950Z,96204.67
2019-05-06T20:54:30.009Z,96203.05
2019-05-06T20:57:02.545Z,96206.92
2019-05-06T20:59:34.548Z,96205.59
2019-05-06T21:02:05.041Z,96200.52
2019-05-06T21:04:35.847Z,96213.44
2019-05-06T21:07:06.297Z,96211.34
2019-05-06T21:09:36.705Z,96209.92
2019-05-06T21:12:21.904Z,96213.50
2019-05-06T21:14:54.213Z,96209.17
2019-05-06T21:17:26.915Z,96211.58
2019-05-06T21:19:58.712Z,96207.28
2019-05-06T21:22:29.239Z,96198.11
2019-05-06T21:25:02.241Z,96200.81
2019-05-06T21:27:35.226Z,96195.70
2019-05-06T21:30:09.289Z,96198.05
2019-05-06T21:32:42.850Z,96194.89
2019-05-06T21:35:13.286Z,96194.69
2019-05-06T21:37:44.919Z,96198.56
2019-05-06T21:40:16.772Z,96195.17
2019-05-06T21:42:49.080Z,96196.73
2019-05-06T21:45:22.145Z,96198.02
2019-05-06T21:47:53.133Z,96201.53
2019-05-06T21:50:23.927Z,96200.11
2019-05-06T21:52:58.358Z,96197.17
2019-05-06T21:55:32.455Z,96196.50
2019-05-06T21:58:03.095Z,96194.88
2019-05-06T22:00:46.320Z,96190.91
2019-05-06T22:03:17.080Z,96189.17
2019-05-06T22:05:48.089Z,96196.71
2019-05-06T22:08:25.805Z,96188.83
2019-05-06T22:10:56.216Z,96192.61
2019-05-06T22:13:29.193Z,96194.91
2019-05-06T22:16:02.302Z,96194.23
2019-05-06T22:18:32.030Z,96192.61
2019-05-06T22:21:22.721Z,96189.27
2019-05-06T22:24:04.190Z,96193.97
2019-05-06T22:26:34.264Z,96194.18
2019-05-06T22:29:04.880Z,96184.33
2019-05-06T22:31:36.871Z,96189.11
2019-05-06T22:34:09.656Z,96179.76
2019-05-06T22:36:40.073Z,96177.63
2019-05-06T22:39:12.934Z,96179.45
2019-05-06T22:41:44.054Z,96176.81
2019-05-06T22:44:17.000Z,96176.45
2019-05-06T22:46:49.886Z,96173.41
2019-05-06T22:49:34.958Z,96169.95
2019-05-06T22:52:08.750Z,96169.95
2019-05-06T22:54:39.173Z,96174.33
2019-05-06T22:57:11.922Z,96167.66
2019-05-06T22:59:42.733Z,96173.66
2019-05-06T23:02:52.714Z,96167.77
2019-05-06T23:05:26.101Z,96171.33
2019-05-06T23:07:56.524Z,96173.63
2019-05-06T23:10:30.964Z,96174.24
2019-05-06T23:13:06.921Z,96173.13
2019-05-06T23:15:37.693Z,96173.03
2019-05-06T23:18:14.869Z,96174.37
2019-05-06T23:20:45.312Z,96167.10
2019-05-06T23:23:16.015Z,96175.13
2019-05-06T23:26:05.418Z,96176.47
2019-05-06T23:28:35.890Z,96173.63
2019-05-06T23:31:06.868Z,96178.62
2019-05-06T23:33:37.316Z,96176.59
2019-05-06T23:36:08.805Z,96174.80
2019-05-06T23:39:15.423Z,96172.28
2019-05-06T23:42:32.253Z,96174.02
2019-05-06T23:45:38.258Z,96176.65
2019-05-06T23:48:46.676Z,96175.34
2019-05-06T23:51:53.268Z,96178.50
2019-05-06T23:55:18.162Z,96173.83
2019-05-06T23:57:46.931Z,96173.34
